sensor_id;sensor_type;location;lat;lon;timestamp;P1;durP1;ratioP1;P2;durP2;ratioP2
37413;SDS011;23279;46.472;30.760;2022-07-04T00:00:14;0.00;;;0.00;;
37413;SDS011;23279;46.472;30.760;2022-07-04T00:02:41;0.00;;;0.00;;
37413;SDS011;23279;46.472;30.760;2022-07-04T00:05:08;0.00;;;0.00;;
37413;SDS011;23279;46.472;30.760;2022-07-04T00:07:38;0.20;;;0.00;;
37413;SDS011;23279;46.472;30.760;2022-07-04T00:10:04;0.00;;;0.00;;
37413;SDS011;23279;46.472;30.760;2022-07-04T00:12:31;0.00;;;0.00;;
37413;SDS011;23279;46.472;30.760;2022-07-04T00:14:56;0.10;;;0.00;;
37413;SDS011;23279;46.472;30.760;2022-07-04T00:17:22;0.10;;;0.00;;
37413;SDS011;23279;46.472;30.760;2022-07-04T00:19:47;0.00;;;0.00;;
37413;SDS011;23279;46.472;30.760;2022-07-04T00:22:13;0.00;;;0.00;;
37413;SDS011;23279;46.472;30.760;2022-07-04T00:24:38;0.00;;;0.00;;
37413;SDS011;23279;46.472;30.760;2022-07-04T00:27:04;0.00;;;0.00;;
37413;SDS011;23279;46.472;30.760;2022-07-04T00:29:29;0.40;;;0.10;;
37413;SDS011;23279;46.472;30.760;2022-07-04T00:31:55;0.00;;;0.00;;
37413;SDS011;23279;46.472;30.760;2022-07-04T00:34:20;0.00;;;0.00;;
37413;SDS011;23279;46.472;30.760;2022-07-04T00:36:46;0.00;;;0.00;;
37413;SDS011;23279;46.472;30.760;2022-07-04T00:39:11;0.32;;;0.10;;
37413;SDS011;23279;46.472;30.760;2022-07-04T00:41:37;0.00;;;0.00;;
37413;SDS011;23279;46.472;30.760;2022-07-04T00:44:07;0.00;;;0.00;;
37413;SDS011;23279;46.472;30.760;2022-07-04T00:46:33;0.00;;;0.00;;
37413;SDS011;23279;46.472;30.760;2022-07-04T00:48:59;0.00;;;0.00;;
37413;SDS011;23279;46.472;30.760;2022-07-04T00:51:26;0.00;;;0.00;;
37413;SDS011;23279;46.472;30.760;2022-07-04T00:53:52;0.00;;;0.00;;
37413;SDS011;23279;46.472;30.760;2022-07-04T00:56:22;0.00;;;0.00;;
37413;SDS011;23279;46.472;30.760;2022-07-04T00:58:49;0.00;;;0.00;;
37413;SDS011;23279;46.472;30.760;2022-07-04T01:01:16;0.00;;;0.00;;
37413;SDS011;23279;46.472;30.760;2022-07-04T01:03:42;0.10;;;0.00;;
37413;SDS011;23279;46.472;30.760;2022-07-04T01:06:08;0.00;;;0.00;;
37413;SDS011;23279;46.472;30.760;2022-07-04T01:08:35;0.00;;;0.00;;
37413;SDS011;23279;46.472;30.760;2022-07-04T01:11:02;0.00;;;0.00;;
37413;SDS011;23279;46.472;30.760;2022-07-04T01:13:27;0.10;;;0.00;;
37413;SDS011;23279;46.472;30.760;2022-07-04T01:15:53;0.00;;;0.00;;
37413;SDS011;23279;46.472;30.760;2022-07-04T01:18:18;0.00;;;0.00;;
37413;SDS011;23279;46.472;30.760;2022-07-04T01:20:44;0.00;;;0.00;;
37413;SDS011;23279;46.472;30.760;2022-07-04T01:23:09;0.00;;;0.00;;
37413;SDS011;23279;46.472;30.760;2022-07-04T01:25:35;0.00;;;0.00;;
37413;SDS011;23279;46.472;30.760;2022-07-04T01:28:01;0.00;;;0.00;;
37413;SDS011;23279;46.472;30.760;2022-07-04T01:30:28;0.00;;;0.00;;
37413;SDS011;23279;46.472;30.760;2022-07-04T01:32:54;0.10;;;0.05;;
37413;SDS011;23279;46.472;30.760;2022-07-04T01:35:21;0.00;;;0.00;;
37413;SDS011;23279;46.472;30.760;2022-07-04T01:37:47;0.00;;;0.00;;
37413;SDS011;23279;46.472;30.760;2022-07-04T01:40:13;0.00;;;0.00;;
37413;SDS011;23279;46.472;30.760;2022-07-04T01:42:39;0.10;;;0.00;;
37413;SDS011;23279;46.472;30.760;2022-07-04T01:45:05;0.00;;;0.00;;
37413;SDS011;23279;46.472;30.760;2022-07-04T01:47:31;0.00;;;0.00;;
37413;SDS011;23279;46.472;30.760;2022-07-04T01:49:57;0.00;;;0.00;;
37413;SDS011;23279;46.472;30.760;2022-07-04T01:52:23;0.20;;;0.00;;
37413;SDS011;23279;46.472;30.760;2022-07-04T01:54:48;0.00;;;0.00;;
37413;SDS011;23279;46.472;30.760;2022-07-04T01:57:13;0.10;;;0.10;;
37413;SDS011;23279;46.472;30.760;2022-07-04T01:59:39;0.10;;;0.00;;
37413;SDS011;23279;46.472;30.760;2022-07-04T02:02:24;0.00;;;0.00;;
37413;SDS011;23279;46.472;30.760;2022-07-04T02:04:49;0.00;;;0.00;;
37413;SDS011;23279;46.472;30.760;2022-07-04T02:07:15;0.00;;;0.00;;
37413;SDS011;23279;46.472;30.760;2022-07-04T02:09:40;0.00;;;0.00;;
37413;SDS011;23279;46.472;30.760;2022-07-04T02:12:06;0.10;;;0.10;;
37413;SDS011;23279;46.472;30.760;2022-07-04T02:14:50;0.00;;;0.00;;
37413;SDS011;23279;46.472;30.760;2022-07-04T02:17:15;0.10;;;0.00;;
37413;SDS011;23279;46.472;30.760;2022-07-04T02:19:41;0.10;;;0.10;;
37413;SDS011;23279;46.472;30.760;2022-07-04T02:22:06;0.08;;;0.08;;
37413;SDS011;23279;46.472;30.760;2022-07-04T02:24:32;0.00;;;0.00;;
37413;SDS011;23279;46.472;30.760;2022-07-04T02:26:57;0.00;;;0.00;;
37413;SDS011;23279;46.472;30.760;2022-07-04T02:29:23;0.00;;;0.00;;
37413;SDS011;23279;46.472;30.760;2022-07-04T02:31:48;0.00;;;0.00;;
37413;SDS011;23279;46.472;30.760;2022-07-04T02:34:13;0.10;;;0.10;;
37413;SDS011;23279;46.472;30.760;2022-07-04T02:36:39;0.00;;;0.00;;
37413;SDS011;23279;46.472;30.760;2022-07-04T02:39:05;0.05;;;0.00;;
37413;SDS011;23279;46.472;30.760;2022-07-04T02:41:31;0.20;;;0.05;;
37413;SDS011;23279;46.472;30.760;2022-07-04T02:43:57;0.10;;;0.00;;
37413;SDS011;23279;46.472;30.760;2022-07-04T02:46:24;0.10;;;0.00;;
37413;SDS011;23279;46.472;30.760;2022-07-04T02:48:49;0.00;;;0.00;;
37413;SDS011;23279;46.472;30.760;2022-07-04T02:51:14;0.00;;;0.00;;
37413;SDS011;23279;46.472;30.760;2022-07-04T02:53:40;0.10;;;0.00;;
37413;SDS011;23279;46.472;30.760;2022-07-04T02:56:05;0.00;;;0.00;;
37413;SDS011;23279;46.472;30.760;2022-07-04T02:58:31;0.00;;;0.00;;
37413;SDS011;23279;46.472;30.760;2022-07-04T03:00:58;0.00;;;0.00;;
37413;SDS011;23279;46.472;30.760;2022-07-04T03:03:24;0.00;;;0.00;;
37413;SDS011;23279;46.472;30.760;2022-07-04T03:05:49;0.00;;;0.00;;
37413;SDS011;23279;46.472;30.760;2022-07-04T03:08:15;0.00;;;0.00;;
37413;SDS011;23279;46.472;30.760;2022-07-04T03:10:40;0.00;;;0.00;;
37413;SDS011;23279;46.472;30.760;2022-07-04T03:13:06;0.00;;;0.00;;
37413;SDS011;23279;46.472;30.760;2022-07-04T03:15:31;0.00;;;0.00;;
37413;SDS011;23279;46.472;30.760;2022-07-04T03:17:57;0.00;;;0.00;;
37413;SDS011;23279;46.472;30.760;2022-07-04T03:20:22;0.00;;;0.00;;
37413;SDS011;23279;46.472;30.760;2022-07-04T03:22:48;0.00;;;0.00;;
37413;SDS011;23279;46.472;30.760;2022-07-04T03:25:14;0.63;;;0.00;;
37413;SDS011;23279;46.472;30.760;2022-07-04T03:27:39;0.00;;;0.00;;
37413;SDS011;23279;46.472;30.760;2022-07-04T03:30:05;0.00;;;0.00;;
37413;SDS011;23279;46.472;30.760;2022-07-04T03:32:31;0.00;;;0.00;;
37413;SDS011;23279;46.472;30.760;2022-07-04T03:34:56;0.00;;;0.00;;
37413;SDS011;23279;46.472;30.760;2022-07-04T03:37:22;0.00;;;0.00;;
37413;SDS011;23279;46.472;30.760;2022-07-04T03:39:47;0.00;;;0.00;;
37413;SDS011;23279;46.472;30.760;2022-07-04T03:42:12;0.00;;;0.00;;
37413;SDS011;23279;46.472;30.760;2022-07-04T03:44:38;0.00;;;0.00;;
37413;SDS011;23279;46.472;30.760;2022-07-04T03:47:03;0.00;;;0.00;;
37413;SDS011;23279;46.472;30.760;2022-07-04T03:49:29;0.00;;;0.00;;
37413;SDS011;23279;46.472;30.760;2022-07-04T03:51:54;0.08;;;0.00;;
37413;SDS011;23279;46.472;30.760;2022-07-04T03:54:20;0.00;;;0.00;;
37413;SDS011;23279;46.472;30.760;2022-07-04T03:56:45;0.00;;;0.00;;
37413;SDS011;23279;46.472;30.760;2022-07-04T03:59:11;0.00;;;0.00;;
37413;SDS011;23279;46.472;30.760;2022-07-04T04:01:36;0.03;;;0.03;;
37413;SDS011;23279;46.472;30.760;2022-07-04T04:04:02;0.00;;;0.00;;
37413;SDS011;23279;46.472;30.760;2022-07-04T04:06:46;0.00;;;0.00;;
37413;SDS011;23279;46.472;30.760;2022-07-04T04:09:11;0.00;;;0.00;;
37413;SDS011;23279;46.472;30.760;2022-07-04T04:11:43;0.00;;;0.00;;
37413;SDS011;23279;46.472;30.760;2022-07-04T04:14:09;0.28;;;0.03;;
37413;SDS011;23279;46.472;30.760;2022-07-04T04:16:35;0.00;;;0.00;;
37413;SDS011;23279;46.472;30.760;2022-07-04T04:19:00;0.00;;;0.00;;
37413;SDS011;23279;46.472;30.760;2022-07-04T04:21:26;0.00;;;0.00;;
37413;SDS011;23279;46.472;30.760;2022-07-04T04:23:51;0.00;;;0.00;;
37413;SDS011;23279;46.472;30.760;2022-07-04T04:26:16;0.00;;;0.00;;
37413;SDS011;23279;46.472;30.760;2022-07-04T04:28:42;0.10;;;0.10;;
37413;SDS011;23279;46.472;30.760;2022-07-04T04:31:08;0.65;;;0.00;;
37413;SDS011;23279;46.472;30.760;2022-07-04T04:33:34;0.00;;;0.00;;
37413;SDS011;23279;46.472;30.760;2022-07-04T04:36:00;0.00;;;0.00;;
37413;SDS011;23279;46.472;30.760;2022-07-04T04:38:26;0.10;;;0.10;;
37413;SDS011;23279;46.472;30.760;2022-07-04T04:40:51;0.10;;;0.10;;
37413;SDS011;23279;46.472;30.760;2022-07-04T04:43:17;0.30;;;0.10;;
37413;SDS011;23279;46.472;30.760;2022-07-04T04:45:42;0.03;;;0.03;;
37413;SDS011;23279;46.472;30.760;2022-07-04T04:48:07;0.13;;;0.10;;
37413;SDS011;23279;46.472;30.760;2022-07-04T04:50:33;0.28;;;0.10;;
37413;SDS011;23279;46.472;30.760;2022-07-04T04:52:58;0.10;;;0.10;;
37413;SDS011;23279;46.472;30.760;2022-07-04T04:55:24;0.08;;;0.08;;
37413;SDS011;23279;46.472;30.760;2022-07-04T04:57:49;0.08;;;0.08;;
37413;SDS011;23279;46.472;30.760;2022-07-04T05:00:15;0.03;;;0.00;;
37413;SDS011;23279;46.472;30.760;2022-07-04T05:02:40;0.10;;;0.10;;
37413;SDS011;23279;46.472;30.760;2022-07-04T05:05:06;0.10;;;0.10;;
37413;SDS011;23279;46.472;30.760;2022-07-04T05:07:32;0.10;;;0.10;;
37413;SDS011;23279;46.472;30.760;2022-07-04T05:09:58;0.30;;;0.20;;
37413;SDS011;23279;46.472;30.760;2022-07-04T05:12:24;0.10;;;0.10;;
37413;SDS011;23279;46.472;30.760;2022-07-04T05:14:51;0.00;;;0.00;;
37413;SDS011;23279;46.472;30.760;2022-07-04T05:17:17;0.10;;;0.10;;
37413;SDS011;23279;46.472;30.760;2022-07-04T05:19:42;0.03;;;0.03;;
37413;SDS011;23279;46.472;30.760;2022-07-04T05:22:08;0.10;;;0.10;;
37413;SDS011;23279;46.472;30.760;2022-07-04T05:24:35;0.10;;;0.10;;
37413;SDS011;23279;46.472;30.760;2022-07-04T05:27:04;0.00;;;0.00;;
37413;SDS011;23279;46.472;30.760;2022-07-04T05:29:30;0.10;;;0.10;;
37413;SDS011;23279;46.472;30.760;2022-07-04T05:31:56;0.10;;;0.10;;
37413;SDS011;23279;46.472;30.760;2022-07-04T05:34:21;0.00;;;0.00;;
37413;SDS011;23279;46.472;30.760;2022-07-04T05:36:47;0.00;;;0.00;;
37413;SDS011;23279;46.472;30.760;2022-07-04T05:39:12;0.10;;;0.10;;
37413;SDS011;23279;46.472;30.760;2022-07-04T05:41:38;0.13;;;0.03;;
37413;SDS011;23279;46.472;30.760;2022-07-04T05:44:03;0.10;;;0.10;;
37413;SDS011;23279;46.472;30.760;2022-07-04T05:46:29;0.00;;;0.00;;
37413;SDS011;23279;46.472;30.760;2022-07-04T05:48:54;0.00;;;0.00;;
37413;SDS011;23279;46.472;30.760;2022-07-04T05:51:20;0.00;;;0.00;;
37413;SDS011;23279;46.472;30.760;2022-07-04T05:53:45;0.00;;;0.00;;
37413;SDS011;23279;46.472;30.760;2022-07-04T05:56:11;0.00;;;0.00;;
37413;SDS011;23279;46.472;30.760;2022-07-04T05:58:36;0.00;;;0.00;;
37413;SDS011;23279;46.472;30.760;2022-07-04T06:01:01;0.00;;;0.00;;
37413;SDS011;23279;46.472;30.760;2022-07-04T06:03:27;0.00;;;0.00;;
37413;SDS011;23279;46.472;30.760;2022-07-04T06:05:52;0.20;;;0.00;;
37413;SDS011;23279;46.472;30.760;2022-07-04T06:08:18;0.03;;;0.00;;
37413;SDS011;23279;46.472;30.760;2022-07-04T06:10:45;0.05;;;0.00;;
37413;SDS011;23279;46.472;30.760;2022-07-04T06:13:11;0.00;;;0.00;;
37413;SDS011;23279;46.472;30.760;2022-07-04T06:15:36;0.10;;;0.10;;
37413;SDS011;23279;46.472;30.760;2022-07-04T06:18:02;0.00;;;0.00;;
37413;SDS011;23279;46.472;30.760;2022-07-04T06:20:28;0.00;;;0.00;;
37413;SDS011;23279;46.472;30.760;2022-07-04T06:22:54;0.03;;;0.03;;
37413;SDS011;23279;46.472;30.760;2022-07-04T06:25:19;0.00;;;0.00;;
37413;SDS011;23279;46.472;30.760;2022-07-04T06:27:46;0.00;;;0.00;;
37413;SDS011;23279;46.472;30.760;2022-07-04T06:30:12;0.00;;;0.00;;
37413;SDS011;23279;46.472;30.760;2022-07-04T06:32:46;0.00;;;0.00;;
37413;SDS011;23279;46.472;30.760;2022-07-04T06:35:14;0.00;;;0.00;;
37413;SDS011;23279;46.472;30.760;2022-07-04T06:38:01;0.00;;;0.00;;
37413;SDS011;23279;46.472;30.760;2022-07-04T06:40:26;0.00;;;0.00;;
37413;SDS011;23279;46.472;30.760;2022-07-04T06:42:52;0.00;;;0.00;;
37413;SDS011;23279;46.472;30.760;2022-07-04T06:45:17;0.00;;;0.00;;
37413;SDS011;23279;46.472;30.760;2022-07-04T06:47:43;0.00;;;0.00;;
37413;SDS011;23279;46.472;30.760;2022-07-04T06:50:09;0.00;;;0.00;;
37413;SDS011;23279;46.472;30.760;2022-07-04T06:52:35;0.00;;;0.00;;
37413;SDS011;23279;46.472;30.760;2022-07-04T06:55:00;0.10;;;0.00;;
37413;SDS011;23279;46.472;30.760;2022-07-04T06:57:25;0.00;;;0.00;;
37413;SDS011;23279;46.472;30.760;2022-07-04T06:59:51;0.00;;;0.00;;
37413;SDS011;23279;46.472;30.760;2022-07-04T07:02:16;0.00;;;0.00;;
37413;SDS011;23279;46.472;30.760;2022-07-04T07:04:42;0.00;;;0.00;;
37413;SDS011;23279;46.472;30.760;2022-07-04T07:07:08;0.00;;;0.00;;
37413;SDS011;23279;46.472;30.760;2022-07-04T07:09:33;0.00;;;0.00;;
37413;SDS011;23279;46.472;30.760;2022-07-04T07:11:59;0.00;;;0.00;;
37413;SDS011;23279;46.472;30.760;2022-07-04T07:14:24;0.00;;;0.00;;
37413;SDS011;23279;46.472;30.760;2022-07-04T07:16:50;0.00;;;0.00;;
37413;SDS011;23279;46.472;30.760;2022-07-04T07:19:15;0.10;;;0.00;;
37413;SDS011;23279;46.472;30.760;2022-07-04T07:21:40;0.00;;;0.00;;
37413;SDS011;23279;46.472;30.760;2022-07-04T07:24:06;0.00;;;0.00;;
37413;SDS011;23279;46.472;30.760;2022-07-04T07:26:31;0.00;;;0.00;;
37413;SDS011;23279;46.472;30.760;2022-07-04T07:28:57;0.00;;;0.00;;
37413;SDS011;23279;46.472;30.760;2022-07-04T07:31:22;0.00;;;0.00;;
37413;SDS011;23279;46.472;30.760;2022-07-04T07:33:48;0.00;;;0.00;;
37413;SDS011;23279;46.472;30.760;2022-07-04T07:36:13;0.00;;;0.00;;
37413;SDS011;23279;46.472;30.760;2022-07-04T07:38:38;0.00;;;0.00;;
37413;SDS011;23279;46.472;30.760;2022-07-04T07:41:07;0.00;;;0.00;;
37413;SDS011;23279;46.472;30.760;2022-07-04T07:43:33;0.00;;;0.00;;
37413;SDS011;23279;46.472;30.760;2022-07-04T07:45:59;0.00;;;0.00;;
37413;SDS011;23279;46.472;30.760;2022-07-04T07:48:24;0.00;;;0.00;;
37413;SDS011;23279;46.472;30.760;2022-07-04T07:50:50;0.15;;;0.00;;
37413;SDS011;23279;46.472;30.760;2022-07-04T07:53:15;0.10;;;0.10;;
37413;SDS011;23279;46.472;30.760;2022-07-04T07:55:41;0.25;;;0.10;;
37413;SDS011;23279;46.472;30.760;2022-07-04T07:58:06;0.03;;;0.00;;
37413;SDS011;23279;46.472;30.760;2022-07-04T08:00:32;0.00;;;0.00;;
37413;SDS011;23279;46.472;30.760;2022-07-04T08:02:57;0.00;;;0.00;;
37413;SDS011;23279;46.472;30.760;2022-07-04T08:05:41;0.00;;;0.00;;
37413;SDS011;23279;46.472;30.760;2022-07-04T08:08:07;0.00;;;0.00;;
37413;SDS011;23279;46.472;30.760;2022-07-04T08:10:35;0.00;;;0.00;;
37413;SDS011;23279;46.472;30.760;2022-07-04T08:13:02;0.05;;;0.05;;
37413;SDS011;23279;46.472;30.760;2022-07-04T08:15:27;0.10;;;0.10;;
37413;SDS011;23279;46.472;30.760;2022-07-04T08:17:53;0.00;;;0.00;;
37413;SDS011;23279;46.472;30.760;2022-07-04T08:20:18;0.00;;;0.00;;
37413;SDS011;23279;46.472;30.760;2022-07-04T08:22:44;0.00;;;0.00;;
37413;SDS011;23279;46.472;30.760;2022-07-04T08:25:09;0.00;;;0.00;;
37413;SDS011;23279;46.472;30.760;2022-07-04T08:27:35;0.00;;;0.00;;
37413;SDS011;23279;46.472;30.760;2022-07-04T08:30:00;0.03;;;0.03;;
37413;SDS011;23279;46.472;30.760;2022-07-04T08:32:26;0.00;;;0.00;;
37413;SDS011;23279;46.472;30.760;2022-07-04T08:34:51;0.10;;;0.00;;
37413;SDS011;23279;46.472;30.760;2022-07-04T08:37:17;0.00;;;0.00;;
37413;SDS011;23279;46.472;30.760;2022-07-04T08:39:43;0.00;;;0.00;;
37413;SDS011;23279;46.472;30.760;2022-07-04T08:42:13;0.00;;;0.00;;
37413;SDS011;23279;46.472;30.760;2022-07-04T08:44:41;0.00;;;0.00;;
37413;SDS011;23279;46.472;30.760;2022-07-04T08:47:17;0.00;;;0.00;;
37413;SDS011;23279;46.472;30.760;2022-07-04T08:49:55;0.00;;;0.00;;
37413;SDS011;23279;46.472;30.760;2022-07-04T08:52:47;0.00;;;0.00;;
37413;SDS011;23279;46.472;30.760;2022-07-04T08:55:18;0.00;;;0.00;;
37413;SDS011;23279;46.472;30.760;2022-07-04T08:58:03;0.00;;;0.00;;
37413;SDS011;23279;46.472;30.760;2022-07-04T09:00:48;0.00;;;0.00;;
37413;SDS011;23279;46.472;30.760;2022-07-04T09:03:14;0.70;;;0.43;;
37413;SDS011;23279;46.472;30.760;2022-07-04T09:05:40;0.32;;;0.00;;
37413;SDS011;23279;46.472;30.760;2022-07-04T09:08:05;0.00;;;0.00;;
37413;SDS011;23279;46.472;30.760;2022-07-04T09:10:31;1.83;;;1.02;;
37413;SDS011;23279;46.472;30.760;2022-07-04T09:12:56;4.15;;;2.22;;
37413;SDS011;23279;46.472;30.760;2022-07-04T09:15:22;3.35;;;1.83;;
37413;SDS011;23279;46.472;30.760;2022-07-04T09:17:47;0.43;;;0.43;;
37413;SDS011;23279;46.472;30.760;2022-07-04T09:20:22;0.00;;;0.00;;
37413;SDS011;23279;46.472;30.760;2022-07-04T09:22:49;0.00;;;0.00;;
37413;SDS011;23279;46.472;30.760;2022-07-04T09:25:15;0.95;;;0.20;;
37413;SDS011;23279;46.472;30.760;2022-07-04T09:27:46;0.10;;;0.10;;
37413;SDS011;23279;46.472;30.760;2022-07-04T09:30:16;0.17;;;0.10;;
37413;SDS011;23279;46.472;30.760;2022-07-04T09:32:47;1.20;;;0.80;;
37413;SDS011;23279;46.472;30.760;2022-07-04T09:35:20;1.73;;;0.60;;
37413;SDS011;23279;46.472;30.760;2022-07-04T09:37:48;4.13;;;1.77;;
37413;SDS011;23279;46.472;30.760;2022-07-04T09:42:54;0.75;;;0.57;;
37413;SDS011;23279;46.472;30.760;2022-07-04T09:45:21;2.25;;;0.70;;
37413;SDS011;23279;46.472;30.760;2022-07-04T09:47:49;0.88;;;0.68;;
37413;SDS011;23279;46.472;30.760;2022-07-04T09:50:17;0.10;;;0.10;;
37413;SDS011;23279;46.472;30.760;2022-07-04T09:55:12;1.25;;;0.32;;
37413;SDS011;23279;46.472;30.760;2022-07-04T09:57:37;0.00;;;0.00;;
37413;SDS011;23279;46.472;30.760;2022-07-04T10:00:18;0.40;;;0.10;;
37413;SDS011;23279;46.472;30.760;2022-07-04T10:02:46;0.00;;;0.00;;
37413;SDS011;23279;46.472;30.760;2022-07-04T10:05:11;0.00;;;0.00;;
37413;SDS011;23279;46.472;30.760;2022-07-04T10:07:38;0.00;;;0.00;;
37413;SDS011;23279;46.472;30.760;2022-07-04T10:10:25;0.00;;;0.00;;
37413;SDS011;23279;46.472;30.760;2022-07-04T10:12:53;0.00;;;0.00;;
37413;SDS011;23279;46.472;30.760;2022-07-04T10:15:20;0.00;;;0.00;;
37413;SDS011;23279;46.472;30.760;2022-07-04T10:17:46;0.00;;;0.00;;
37413;SDS011;23279;46.472;30.760;2022-07-04T10:20:12;0.00;;;0.00;;
37413;SDS011;23279;46.472;30.760;2022-07-04T10:22:38;0.00;;;0.00;;
37413;SDS011;23279;46.472;30.760;2022-07-04T10:25:05;0.00;;;0.00;;
37413;SDS011;23279;46.472;30.760;2022-07-04T10:27:31;0.10;;;0.10;;
37413;SDS011;23279;46.472;30.760;2022-07-04T10:30:00;0.00;;;0.00;;
37413;SDS011;23279;46.472;30.760;2022-07-04T10:32:27;0.00;;;0.00;;
37413;SDS011;23279;46.472;30.760;2022-07-04T10:34:54;0.00;;;0.00;;
37413;SDS011;23279;46.472;30.760;2022-07-04T10:37:19;0.00;;;0.00;;
37413;SDS011;23279;46.472;30.760;2022-07-04T10:39:46;0.00;;;0.00;;
37413;SDS011;23279;46.472;30.760;2022-07-04T10:42:24;0.00;;;0.00;;
37413;SDS011;23279;46.472;30.760;2022-07-04T10:44:51;0.00;;;0.00;;
37413;SDS011;23279;46.472;30.760;2022-07-04T10:47:24;0.17;;;0.10;;
37413;SDS011;23279;46.472;30.760;2022-07-04T10:49:55;0.00;;;0.00;;
37413;SDS011;23279;46.472;30.760;2022-07-04T10:52:20;0.00;;;0.00;;
37413;SDS011;23279;46.472;30.760;2022-07-04T10:54:46;0.00;;;0.00;;
37413;SDS011;23279;46.472;30.760;2022-07-04T10:59:40;0.00;;;0.00;;
37413;SDS011;23279;46.472;30.760;2022-07-04T11:07:19;0.15;;;0.03;;
37413;SDS011;23279;46.472;30.760;2022-07-04T11:18:04;0.00;;;0.00;;
37413;SDS011;23279;46.472;30.760;2022-07-04T11:20:34;0.00;;;0.00;;
37413;SDS011;23279;46.472;30.760;2022-07-04T11:23:09;0.00;;;0.00;;
37413;SDS011;23279;46.472;30.760;2022-07-04T11:25:39;0.00;;;0.00;;
37413;SDS011;23279;46.472;30.760;2022-07-04T11:31:03;0.00;;;0.00;;
37413;SDS011;23279;46.472;30.760;2022-07-04T11:33:29;0.00;;;0.00;;
37413;SDS011;23279;46.472;30.760;2022-07-04T11:36:16;0.00;;;0.00;;
37413;SDS011;23279;46.472;30.760;2022-07-04T11:41:14;0.00;;;0.00;;
37413;SDS011;23279;46.472;30.760;2022-07-04T11:44:02;0.00;;;0.00;;
37413;SDS011;23279;46.472;30.760;2022-07-04T11:46:50;0.00;;;0.00;;
37413;SDS011;23279;46.472;30.760;2022-07-04T11:49:15;0.00;;;0.00;;
37413;SDS011;23279;46.472;30.760;2022-07-04T11:51:41;0.00;;;0.00;;
37413;SDS011;23279;46.472;30.760;2022-07-04T11:54:11;0.22;;;0.05;;
37413;SDS011;23279;46.472;30.760;2022-07-04T11:56:37;0.00;;;0.00;;
37413;SDS011;23279;46.472;30.760;2022-07-04T11:59:13;0.00;;;0.00;;
37413;SDS011;23279;46.472;30.760;2022-07-04T12:01:40;0.00;;;0.00;;
37413;SDS011;23279;46.472;30.760;2022-07-04T12:04:18;0.00;;;0.00;;
37413;SDS011;23279;46.472;30.760;2022-07-04T12:06:46;0.00;;;0.00;;
37413;SDS011;23279;46.472;30.760;2022-07-04T12:09:12;0.00;;;0.00;;
37413;SDS011;23279;46.472;30.760;2022-07-04T12:11:53;0.10;;;0.00;;
37413;SDS011;23279;46.472;30.760;2022-07-04T12:14:19;0.22;;;0.00;;
37413;SDS011;23279;46.472;30.760;2022-07-04T12:16:44;0.00;;;0.00;;
37413;SDS011;23279;46.472;30.760;2022-07-04T12:19:12;0.00;;;0.00;;
37413;SDS011;23279;46.472;30.760;2022-07-04T12:21:37;0.00;;;0.00;;
37413;SDS011;23279;46.472;30.760;2022-07-04T12:24:04;0.00;;;0.00;;
37413;SDS011;23279;46.472;30.760;2022-07-04T12:26:30;0.00;;;0.00;;
37413;SDS011;23279;46.472;30.760;2022-07-04T12:28:56;0.00;;;0.00;;
37413;SDS011;23279;46.472;30.760;2022-07-04T12:34:23;0.00;;;0.00;;
37413;SDS011;23279;46.472;30.760;2022-07-04T12:36:52;0.00;;;0.00;;
37413;SDS011;23279;46.472;30.760;2022-07-04T12:44:48;0.00;;;0.00;;
37413;SDS011;23279;46.472;30.760;2022-07-04T12:47:17;0.00;;;0.00;;
37413;SDS011;23279;46.472;30.760;2022-07-04T12:49:43;0.00;;;0.00;;
37413;SDS011;23279;46.472;30.760;2022-07-04T12:52:11;0.00;;;0.00;;
37413;SDS011;23279;46.472;30.760;2022-07-04T12:54:38;0.00;;;0.00;;
37413;SDS011;23279;46.472;30.760;2022-07-04T12:57:13;0.00;;;0.00;;
37413;SDS011;23279;46.472;30.760;2022-07-04T12:59:40;0.00;;;0.00;;
37413;SDS011;23279;46.472;30.760;2022-07-04T13:02:07;0.00;;;0.00;;
37413;SDS011;23279;46.472;30.760;2022-07-04T13:04:34;0.00;;;0.00;;
37413;SDS011;23279;46.472;30.760;2022-07-04T13:07:01;0.00;;;0.00;;
37413;SDS011;23279;46.472;30.760;2022-07-04T13:09:40;0.00;;;0.00;;
37413;SDS011;23279;46.472;30.760;2022-07-04T13:12:07;0.00;;;0.00;;
37413;SDS011;23279;46.472;30.760;2022-07-04T13:14:52;0.00;;;0.00;;
37413;SDS011;23279;46.472;30.760;2022-07-04T13:17:21;0.00;;;0.00;;
37413;SDS011;23279;46.472;30.760;2022-07-04T13:19:48;0.00;;;0.00;;
37413;SDS011;23279;46.472;30.760;2022-07-04T13:22:13;0.10;;;0.00;;
37413;SDS011;23279;46.472;30.760;2022-07-04T13:24:39;0.00;;;0.00;;
37413;SDS011;23279;46.472;30.760;2022-07-04T13:27:04;0.00;;;0.00;;
37413;SDS011;23279;46.472;30.760;2022-07-04T13:29:31;0.00;;;0.00;;
37413;SDS011;23279;46.472;30.760;2022-07-04T13:31:56;0.00;;;0.00;;
37413;SDS011;23279;46.472;30.760;2022-07-04T13:34:22;0.10;;;0.10;;
37413;SDS011;23279;46.472;30.760;2022-07-04T13:36:47;0.00;;;0.00;;
37413;SDS011;23279;46.472;30.760;2022-07-04T13:39:13;0.10;;;0.10;;
37413;SDS011;23279;46.472;30.760;2022-07-04T13:41:38;0.08;;;0.08;;
37413;SDS011;23279;46.472;30.760;2022-07-04T13:44:04;0.10;;;0.10;;
37413;SDS011;23279;46.472;30.760;2022-07-04T13:46:31;0.20;;;0.15;;
37413;SDS011;23279;46.472;30.760;2022-07-04T13:49:00;0.20;;;0.20;;
37413;SDS011;23279;46.472;30.760;2022-07-04T13:51:26;0.00;;;0.00;;
37413;SDS011;23279;46.472;30.760;2022-07-04T13:53:52;0.10;;;0.10;;
37413;SDS011;23279;46.472;30.760;2022-07-04T13:56:17;0.17;;;0.17;;
37413;SDS011;23279;46.472;30.760;2022-07-04T13:58:43;0.00;;;0.00;;
37413;SDS011;23279;46.472;30.760;2022-07-04T14:01:10;0.22;;;0.00;;
37413;SDS011;23279;46.472;30.760;2022-07-04T14:03:36;0.15;;;0.10;;
37413;SDS011;23279;46.472;30.760;2022-07-04T14:06:01;0.50;;;0.10;;
37413;SDS011;23279;46.472;30.760;2022-07-04T14:08:27;0.00;;;0.00;;
37413;SDS011;23279;46.472;30.760;2022-07-04T14:10:53;0.08;;;0.00;;
37413;SDS011;23279;46.472;30.760;2022-07-04T14:13:18;0.20;;;0.00;;
37413;SDS011;23279;46.472;30.760;2022-07-04T14:15:44;0.00;;;0.00;;
37413;SDS011;23279;46.472;30.760;2022-07-04T14:18:09;0.00;;;0.00;;
37413;SDS011;23279;46.472;30.760;2022-07-04T14:20:39;0.00;;;0.00;;
37413;SDS011;23279;46.472;30.760;2022-07-04T14:23:05;0.00;;;0.00;;
37413;SDS011;23279;46.472;30.760;2022-07-04T14:25:31;0.00;;;0.00;;
37413;SDS011;23279;46.472;30.760;2022-07-04T14:27:56;0.00;;;0.00;;
37413;SDS011;23279;46.472;30.760;2022-07-04T14:30:22;0.00;;;0.00;;
37413;SDS011;23279;46.472;30.760;2022-07-04T14:32:47;0.00;;;0.00;;
37413;SDS011;23279;46.472;30.760;2022-07-04T14:35:13;0.00;;;0.00;;
37413;SDS011;23279;46.472;30.760;2022-07-04T14:37:38;0.00;;;0.00;;
37413;SDS011;23279;46.472;30.760;2022-07-04T14:40:04;0.00;;;0.00;;
37413;SDS011;23279;46.472;30.760;2022-07-04T14:42:30;0.00;;;0.00;;
37413;SDS011;23279;46.472;30.760;2022-07-04T14:44:55;0.10;;;0.00;;
37413;SDS011;23279;46.472;30.760;2022-07-04T14:47:21;0.00;;;0.00;;
37413;SDS011;23279;46.472;30.760;2022-07-04T14:49:47;0.00;;;0.00;;
37413;SDS011;23279;46.472;30.760;2022-07-04T14:52:12;0.00;;;0.00;;
37413;SDS011;23279;46.472;30.760;2022-07-04T14:54:37;0.00;;;0.00;;
37413;SDS011;23279;46.472;30.760;2022-07-04T14:57:03;0.00;;;0.00;;
37413;SDS011;23279;46.472;30.760;2022-07-04T14:59:29;0.00;;;0.00;;
37413;SDS011;23279;46.472;30.760;2022-07-04T15:01:54;0.00;;;0.00;;
37413;SDS011;23279;46.472;30.760;2022-07-04T15:04:19;0.00;;;0.00;;
37413;SDS011;23279;46.472;30.760;2022-07-04T15:06:45;0.03;;;0.00;;